sensor_id;sensor_type;location;lat;lon;timestamp;P1;durP1;ratioP1;P2;durP2;ratioP2
15383;SDS011;7790;53.022;12.968;2023-09-30T00:01:43;2.80;;;2.60;;
15383;SDS011;7790;53.022;12.968;2023-09-30T00:05:44;2.80;;;2.30;;
15383;SDS011;7790;53.022;12.968;2023-09-30T00:09:45;3.07;;;2.40;;
15383;SDS011;7790;53.022;12.968;2023-09-30T00:13:46;2.63;;;2.40;;
15383;SDS011;7790;53.022;12.968;2023-09-30T00:17:48;2.90;;;2.30;;
15383;SDS011;7790;53.022;12.968;2023-09-30T00:21:49;2.70;;;2.27;;
15383;SDS011;7790;53.022;12.968;2023-09-30T00:25:50;2.50;;;2.30;;
15383;SDS011;7790;53.022;12.968;2023-09-30T00:29:51;2.40;;;2.17;;
15383;SDS011;7790;53.022;12.968;2023-09-30T00:33:52;2.37;;;2.17;;
15383;SDS011;7790;53.022;12.968;2023-09-30T00:37:52;2.33;;;2.00;;
15383;SDS011;7790;53.022;12.968;2023-09-30T00:41:53;2.23;;;2.00;;
15383;SDS011;7790;53.022;12.968;2023-09-30T00:50:31;2.40;;;2.20;;
15383;SDS011;7790;53.022;12.968;2023-09-30T00:54:33;2.10;;;1.87;;
15383;SDS011;7790;53.022;12.968;2023-09-30T00:58:35;2.67;;;2.40;;
15383;SDS011;7790;53.022;12.968;2023-09-30T01:02:39;2.87;;;2.30;;
15383;SDS011;7790;53.022;12.968;2023-09-30T01:06:41;2.80;;;2.00;;
15383;SDS011;7790;53.022;12.968;2023-09-30T01:10:42;3.07;;;2.30;;
15383;SDS011;7790;53.022;12.968;2023-09-30T01:14:43;3.07;;;2.20;;
15383;SDS011;7790;53.022;12.968;2023-09-30T01:18:44;2.87;;;1.90;;
15383;SDS011;7790;53.022;12.968;2023-09-30T01:22:45;2.07;;;1.87;;
15383;SDS011;7790;53.022;12.968;2023-09-30T01:26:46;2.20;;;2.00;;
15383;SDS011;7790;53.022;12.968;2023-09-30T01:30:48;2.37;;;1.80;;
15383;SDS011;7790;53.022;12.968;2023-09-30T01:34:49;2.50;;;2.30;;
15383;SDS011;7790;53.022;12.968;2023-09-30T01:38:50;2.10;;;1.90;;
15383;SDS011;7790;53.022;12.968;2023-09-30T01:42:51;2.10;;;1.80;;
15383;SDS011;7790;53.022;12.968;2023-09-30T01:46:52;2.57;;;1.90;;
15383;SDS011;7790;53.022;12.968;2023-09-30T01:50:52;2.83;;;2.10;;
15383;SDS011;7790;53.022;12.968;2023-09-30T01:54:53;2.73;;;2.00;;
15383;SDS011;7790;53.022;12.968;2023-09-30T01:58:54;2.17;;;1.97;;
15383;SDS011;7790;53.022;12.968;2023-09-30T02:02:55;2.63;;;1.80;;
15383;SDS011;7790;53.022;12.968;2023-09-30T02:06:56;2.57;;;1.90;;
15383;SDS011;7790;53.022;12.968;2023-09-30T02:10:57;3.37;;;2.50;;
15383;SDS011;7790;53.022;12.968;2023-09-30T02:14:58;4.50;;;3.13;;
15383;SDS011;7790;53.022;12.968;2023-09-30T02:18:59;4.30;;;3.20;;
15383;SDS011;7790;53.022;12.968;2023-09-30T02:23:00;5.40;;;4.13;;
15383;SDS011;7790;53.022;12.968;2023-09-30T02:27:02;5.70;;;4.30;;
15383;SDS011;7790;53.022;12.968;2023-09-30T02:31:03;4.17;;;3.53;;
15383;SDS011;7790;53.022;12.968;2023-09-30T02:35:04;3.50;;;3.20;;
15383;SDS011;7790;53.022;12.968;2023-09-30T02:39:05;4.07;;;3.23;;
15383;SDS011;7790;53.022;12.968;2023-09-30T02:43:07;3.47;;;3.00;;
15383;SDS011;7790;53.022;12.968;2023-09-30T02:47:08;4.43;;;3.20;;
15383;SDS011;7790;53.022;12.968;2023-09-30T02:51:10;3.67;;;2.77;;
15383;SDS011;7790;53.022;12.968;2023-09-30T02:55:12;3.37;;;2.63;;
15383;SDS011;7790;53.022;12.968;2023-09-30T02:59:13;3.70;;;2.57;;
15383;SDS011;7790;53.022;12.968;2023-09-30T03:03:15;2.90;;;2.53;;
15383;SDS011;7790;53.022;12.968;2023-09-30T03:07:16;4.27;;;2.97;;
15383;SDS011;7790;53.022;12.968;2023-09-30T03:11:20;4.13;;;2.80;;
15383;SDS011;7790;53.022;12.968;2023-09-30T03:15:22;2.80;;;2.50;;
15383;SDS011;7790;53.022;12.968;2023-09-30T03:19:23;3.17;;;2.57;;
15383;SDS011;7790;53.022;12.968;2023-09-30T03:23:24;3.20;;;2.50;;
15383;SDS011;7790;53.022;12.968;2023-09-30T03:27:29;2.73;;;2.47;;
15383;SDS011;7790;53.022;12.968;2023-09-30T03:31:30;2.90;;;2.60;;
15383;SDS011;7790;53.022;12.968;2023-09-30T03:35:31;3.07;;;2.50;;
15383;SDS011;7790;53.022;12.968;2023-09-30T03:39:32;3.70;;;2.33;;
15383;SDS011;7790;53.022;12.968;2023-09-30T03:43:33;2.40;;;2.20;;
15383;SDS011;7790;53.022;12.968;2023-09-30T03:47:37;3.80;;;2.47;;
15383;SDS011;7790;53.022;12.968;2023-09-30T03:51:40;4.97;;;2.40;;
15383;SDS011;7790;53.022;12.968;2023-09-30T03:55:41;2.53;;;2.20;;
15383;SDS011;7790;53.022;12.968;2023-09-30T03:59:42;3.17;;;2.20;;
15383;SDS011;7790;53.022;12.968;2023-09-30T04:03:46;2.60;;;2.27;;
15383;SDS011;7790;53.022;12.968;2023-09-30T04:07:47;2.50;;;2.10;;
15383;SDS011;7790;53.022;12.968;2023-09-30T04:11:48;2.40;;;2.07;;
15383;SDS011;7790;53.022;12.968;2023-09-30T04:15:49;2.47;;;2.20;;
15383;SDS011;7790;53.022;12.968;2023-09-30T04:19:51;2.30;;;1.97;;
15383;SDS011;7790;53.022;12.968;2023-09-30T04:23:52;2.60;;;2.30;;
15383;SDS011;7790;53.022;12.968;2023-09-30T04:27:53;2.43;;;2.20;;
15383;SDS011;7790;53.022;12.968;2023-09-30T04:31:54;1.87;;;1.77;;
15383;SDS011;7790;53.022;12.968;2023-09-30T04:35:58;3.53;;;2.33;;
15383;SDS011;7790;53.022;12.968;2023-09-30T04:39:58;2.00;;;1.80;;
15383;SDS011;7790;53.022;12.968;2023-09-30T04:43:59;3.07;;;2.20;;
15383;SDS011;7790;53.022;12.968;2023-09-30T04:48:00;2.13;;;1.93;;
15383;SDS011;7790;53.022;12.968;2023-09-30T04:52:04;4.10;;;2.47;;
15383;SDS011;7790;53.022;12.968;2023-09-30T04:56:07;5.80;;;2.87;;
15383;SDS011;7790;53.022;12.968;2023-09-30T05:00:08;4.30;;;2.43;;
15383;SDS011;7790;53.022;12.968;2023-09-30T05:04:11;4.70;;;2.20;;
15383;SDS011;7790;53.022;12.968;2023-09-30T05:08:12;9.83;;;2.80;;
15383;SDS011;7790;53.022;12.968;2023-09-30T05:12:14;3.27;;;2.27;;
15383;SDS011;7790;53.022;12.968;2023-09-30T05:16:17;3.40;;;2.30;;
15383;SDS011;7790;53.022;12.968;2023-09-30T05:20:18;3.33;;;2.20;;
15383;SDS011;7790;53.022;12.968;2023-09-30T05:24:19;2.83;;;2.07;;
15383;SDS011;7790;53.022;12.968;2023-09-30T05:28:21;3.50;;;2.00;;
15383;SDS011;7790;53.022;12.968;2023-09-30T05:32:22;3.50;;;2.47;;
15383;SDS011;7790;53.022;12.968;2023-09-30T05:36:22;4.20;;;2.23;;
15383;SDS011;7790;53.022;12.968;2023-09-30T05:40:25;3.13;;;2.27;;
15383;SDS011;7790;53.022;12.968;2023-09-30T05:44:26;4.07;;;2.17;;
15383;SDS011;7790;53.022;12.968;2023-09-30T05:48:27;4.17;;;2.30;;
15383;SDS011;7790;53.022;12.968;2023-09-30T05:52:28;3.43;;;2.40;;
15383;SDS011;7790;53.022;12.968;2023-09-30T05:56:29;5.80;;;2.67;;
15383;SDS011;7790;53.022;12.968;2023-09-30T06:00:31;8.13;;;2.50;;
15383;SDS011;7790;53.022;12.968;2023-09-30T06:04:35;4.40;;;2.50;;
15383;SDS011;7790;53.022;12.968;2023-09-30T06:08:36;7.00;;;2.80;;
15383;SDS011;7790;53.022;12.968;2023-09-30T06:12:37;6.23;;;2.60;;
15383;SDS011;7790;53.022;12.968;2023-09-30T06:16:38;11.40;;;2.90;;
15383;SDS011;7790;53.022;12.968;2023-09-30T06:20:39;26.77;;;7.17;;
15383;SDS011;7790;53.022;12.968;2023-09-30T06:24:41;21.67;;;5.17;;
15383;SDS011;7790;53.022;12.968;2023-09-30T06:28:44;19.97;;;5.20;;
15383;SDS011;7790;53.022;12.968;2023-09-30T06:32:45;12.20;;;4.83;;
15383;SDS011;7790;53.022;12.968;2023-09-30T06:36:46;17.17;;;5.47;;
15383;SDS011;7790;53.022;12.968;2023-09-30T06:40:47;11.70;;;4.20;;
15383;SDS011;7790;53.022;12.968;2023-09-30T06:44:48;10.00;;;4.27;;
15383;SDS011;7790;53.022;12.968;2023-09-30T06:48:49;12.60;;;4.97;;
15383;SDS011;7790;53.022;12.968;2023-09-30T06:52:52;11.03;;;4.53;;
15383;SDS011;7790;53.022;12.968;2023-09-30T06:56:53;9.30;;;4.77;;
15383;SDS011;7790;53.022;12.968;2023-09-30T07:00:54;11.63;;;4.50;;
15383;SDS011;7790;53.022;12.968;2023-09-30T07:04:55;9.07;;;3.70;;
15383;SDS011;7790;53.022;12.968;2023-09-30T07:08:56;8.07;;;3.50;;
15383;SDS011;7790;53.022;12.968;2023-09-30T07:12:57;10.60;;;4.00;;
15383;SDS011;7790;53.022;12.968;2023-09-30T07:16:58;9.83;;;3.50;;
15383;SDS011;7790;53.022;12.968;2023-09-30T07:20:59;11.23;;;4.17;;
15383;SDS011;7790;53.022;12.968;2023-09-30T07:24:59;8.13;;;3.53;;
15383;SDS011;7790;53.022;12.968;2023-09-30T07:29:00;9.50;;;3.50;;
15383;SDS011;7790;53.022;12.968;2023-09-30T07:33:01;8.50;;;3.77;;
15383;SDS011;7790;53.022;12.968;2023-09-30T07:37:03;6.83;;;3.53;;
15383;SDS011;7790;53.022;12.968;2023-09-30T07:41:04;10.70;;;3.73;;
15383;SDS011;7790;53.022;12.968;2023-09-30T07:45:05;5.90;;;3.00;;
15383;SDS011;7790;53.022;12.968;2023-09-30T07:49:08;7.17;;;3.50;;
15383;SDS011;7790;53.022;12.968;2023-09-30T07:53:10;16.87;;;3.80;;
15383;SDS011;7790;53.022;12.968;2023-09-30T07:57:12;9.43;;;3.37;;
15383;SDS011;7790;53.022;12.968;2023-09-30T08:01:13;10.97;;;3.77;;
15383;SDS011;7790;53.022;12.968;2023-09-30T08:05:15;9.17;;;3.30;;
15383;SDS011;7790;53.022;12.968;2023-09-30T08:09:16;7.93;;;3.50;;
15383;SDS011;7790;53.022;12.968;2023-09-30T08:13:18;9.07;;;3.17;;
15383;SDS011;7790;53.022;12.968;2023-09-30T08:17:19;7.17;;;3.23;;
15383;SDS011;7790;53.022;12.968;2023-09-30T08:21:20;6.50;;;3.50;;
15383;SDS011;7790;53.022;12.968;2023-09-30T08:25:21;7.03;;;3.37;;
15383;SDS011;7790;53.022;12.968;2023-09-30T08:29:21;8.53;;;3.33;;
15383;SDS011;7790;53.022;12.968;2023-09-30T08:33:22;5.93;;;2.93;;
15383;SDS011;7790;53.022;12.968;2023-09-30T08:37:23;7.53;;;3.37;;
15383;SDS011;7790;53.022;12.968;2023-09-30T08:41:29;17.67;;;9.60;;
15383;SDS011;7790;53.022;12.968;2023-09-30T08:45:32;11.20;;;5.63;;
15383;SDS011;7790;53.022;12.968;2023-09-30T08:49:39;9.37;;;5.27;;
15383;SDS011;7790;53.022;12.968;2023-09-30T08:53:44;10.87;;;6.43;;
15383;SDS011;7790;53.022;12.968;2023-09-30T08:57:45;11.93;;;5.00;;
15383;SDS011;7790;53.022;12.968;2023-09-30T09:01:47;10.40;;;4.87;;
15383;SDS011;7790;53.022;12.968;2023-09-30T09:05:55;8.73;;;4.87;;
15383;SDS011;7790;53.022;12.968;2023-09-30T09:10:03;7.30;;;4.30;;
15383;SDS011;7790;53.022;12.968;2023-09-30T09:14:05;7.93;;;4.00;;
15383;SDS011;7790;53.022;12.968;2023-09-30T09:18:08;9.00;;;4.17;;
15383;SDS011;7790;53.022;12.968;2023-09-30T09:22:10;8.70;;;3.43;;
15383;SDS011;7790;53.022;12.968;2023-09-30T09:26:11;7.13;;;3.30;;
15383;SDS011;7790;53.022;12.968;2023-09-30T09:34:24;9.17;;;3.53;;
15383;SDS011;7790;53.022;12.968;2023-09-30T09:38:25;10.03;;;3.40;;
15383;SDS011;7790;53.022;12.968;2023-09-30T09:42:31;9.33;;;3.20;;
15383;SDS011;7790;53.022;12.968;2023-09-30T09:46:33;7.83;;;2.80;;
15383;SDS011;7790;53.022;12.968;2023-09-30T09:50:34;8.33;;;3.07;;
15383;SDS011;7790;53.022;12.968;2023-09-30T09:54:36;8.73;;;2.90;;
15383;SDS011;7790;53.022;12.968;2023-09-30T09:58:39;10.53;;;3.50;;
15383;SDS011;7790;53.022;12.968;2023-09-30T10:02:42;6.73;;;3.00;;
15383;SDS011;7790;53.022;12.968;2023-09-30T10:06:46;7.30;;;3.07;;
15383;SDS011;7790;53.022;12.968;2023-09-30T10:10:53;7.83;;;3.13;;
15383;SDS011;7790;53.022;12.968;2023-09-30T10:14:58;5.00;;;2.27;;
15383;SDS011;7790;53.022;12.968;2023-09-30T10:31:32;9.00;;;2.70;;
15383;SDS011;7790;53.022;12.968;2023-09-30T10:35:50;7.70;;;2.63;;
15383;SDS011;7790;53.022;12.968;2023-09-30T10:39:56;8.90;;;2.60;;
15383;SDS011;7790;53.022;12.968;2023-09-30T10:52:27;8.50;;;2.70;;
15383;SDS011;7790;53.022;12.968;2023-09-30T10:56:32;7.70;;;2.80;;
15383;SDS011;7790;53.022;12.968;2023-09-30T11:00:34;6.60;;;2.20;;
15383;SDS011;7790;53.022;12.968;2023-09-30T11:04:56;6.53;;;2.37;;
15383;SDS011;7790;53.022;12.968;2023-09-30T11:08:57;9.07;;;2.50;;
15383;SDS011;7790;53.022;12.968;2023-09-30T11:13:00;6.40;;;2.43;;
15383;SDS011;7790;53.022;12.968;2023-09-30T11:17:01;7.67;;;2.47;;
15383;SDS011;7790;53.022;12.968;2023-09-30T11:21:05;6.10;;;2.40;;
15383;SDS011;7790;53.022;12.968;2023-09-30T11:25:17;8.90;;;2.80;;
15383;SDS011;7790;53.022;12.968;2023-09-30T11:29:19;3.60;;;1.90;;
15383;SDS011;7790;53.022;12.968;2023-09-30T11:33:21;5.50;;;2.30;;
15383;SDS011;7790;53.022;12.968;2023-09-30T11:37:22;5.23;;;2.20;;
15383;SDS011;7790;53.022;12.968;2023-09-30T11:41:31;5.00;;;2.03;;
15383;SDS011;7790;53.022;12.968;2023-09-30T11:45:35;6.77;;;2.37;;
15383;SDS011;7790;53.022;12.968;2023-09-30T11:49:36;6.77;;;2.57;;
15383;SDS011;7790;53.022;12.968;2023-09-30T11:53:38;5.27;;;1.93;;
15383;SDS011;7790;53.022;12.968;2023-09-30T11:57:39;4.47;;;1.90;;
15383;SDS011;7790;53.022;12.968;2023-09-30T12:01:40;3.87;;;2.10;;
15383;SDS011;7790;53.022;12.968;2023-09-30T12:05:41;5.03;;;2.07;;
15383;SDS011;7790;53.022;12.968;2023-09-30T12:09:42;7.07;;;1.90;;
15383;SDS011;7790;53.022;12.968;2023-09-30T12:13:43;6.00;;;2.57;;
15383;SDS011;7790;53.022;12.968;2023-09-30T12:17:44;5.23;;;1.63;;
15383;SDS011;7790;53.022;12.968;2023-09-30T12:21:46;5.20;;;2.07;;
15383;SDS011;7790;53.022;12.968;2023-09-30T12:25:48;5.57;;;2.20;;
15383;SDS011;7790;53.022;12.968;2023-09-30T12:29:49;5.60;;;2.00;;
15383;SDS011;7790;53.022;12.968;2023-09-30T12:33:49;3.40;;;1.70;;
15383;SDS011;7790;53.022;12.968;2023-09-30T12:37:52;5.53;;;1.90;;
15383;SDS011;7790;53.022;12.968;2023-09-30T12:41:53;2.53;;;1.60;;
15383;SDS011;7790;53.022;12.968;2023-09-30T12:45:54;4.63;;;1.97;;
15383;SDS011;7790;53.022;12.968;2023-09-30T12:49:55;4.23;;;1.90;;
15383;SDS011;7790;53.022;12.968;2023-09-30T12:53:56;4.77;;;1.97;;
15383;SDS011;7790;53.022;12.968;2023-09-30T12:57:58;3.03;;;1.80;;
15383;SDS011;7790;53.022;12.968;2023-09-30T13:02:00;2.67;;;1.30;;
15383;SDS011;7790;53.022;12.968;2023-09-30T13:06:01;3.00;;;1.63;;
15383;SDS011;7790;53.022;12.968;2023-09-30T13:10:02;4.40;;;1.80;;
15383;SDS011;7790;53.022;12.968;2023-09-30T13:14:05;2.63;;;1.50;;
15383;SDS011;7790;53.022;12.968;2023-09-30T13:18:06;5.77;;;1.63;;
15383;SDS011;7790;53.022;12.968;2023-09-30T13:22:07;5.90;;;2.00;;
15383;SDS011;7790;53.022;12.968;2023-09-30T13:26:08;4.30;;;1.90;;
15383;SDS011;7790;53.022;12.968;2023-09-30T13:30:09;5.83;;;1.77;;
15383;SDS011;7790;53.022;12.968;2023-09-30T13:34:10;2.37;;;1.57;;
15383;SDS011;7790;53.022;12.968;2023-09-30T13:38:12;4.27;;;1.50;;
15383;SDS011;7790;53.022;12.968;2023-09-30T13:42:13;3.87;;;1.83;;
15383;SDS011;7790;53.022;12.968;2023-09-30T13:46:14;4.27;;;1.70;;
15383;SDS011;7790;53.022;12.968;2023-09-30T13:50:16;3.50;;;1.47;;
15383;SDS011;7790;53.022;12.968;2023-09-30T13:54:17;3.30;;;1.43;;
15383;SDS011;7790;53.022;12.968;2023-09-30T13:58:18;5.93;;;1.93;;
15383;SDS011;7790;53.022;12.968;2023-09-30T14:02:18;5.23;;;1.93;;
15383;SDS011;7790;53.022;12.968;2023-09-30T14:06:19;6.70;;;1.80;;
15383;SDS011;7790;53.022;12.968;2023-09-30T14:10:20;12.30;;;2.20;;
15383;SDS011;7790;53.022;12.968;2023-09-30T14:14:21;27.47;;;3.80;;
15383;SDS011;7790;53.022;12.968;2023-09-30T14:18:22;31.47;;;3.20;;
15383;SDS011;7790;53.022;12.968;2023-09-30T14:22:23;21.90;;;3.47;;
15383;SDS011;7790;53.022;12.968;2023-09-30T14:26:24;34.03;;;4.43;;
15383;SDS011;7790;53.022;12.968;2023-09-30T14:30:24;19.30;;;3.40;;
15383;SDS011;7790;53.022;12.968;2023-09-30T14:34:25;22.37;;;3.33;;
15383;SDS011;7790;53.022;12.968;2023-09-30T14:38:26;24.10;;;3.47;;
15383;SDS011;7790;53.022;12.968;2023-09-30T14:42:27;25.13;;;4.20;;
15383;SDS011;7790;53.022;12.968;2023-09-30T14:46:28;17.97;;;3.70;;
15383;SDS011;7790;53.022;12.968;2023-09-30T14:50:29;31.60;;;4.30;;
15383;SDS011;7790;53.022;12.968;2023-09-30T14:54:30;20.20;;;3.50;;
15383;SDS011;7790;53.022;12.968;2023-09-30T14:58:31;18.33;;;3.87;;
15383;SDS011;7790;53.022;12.968;2023-09-30T15:02:31;21.60;;;3.30;;
15383;SDS011;7790;53.022;12.968;2023-09-30T15:06:33;12.27;;;2.93;;
15383;SDS011;7790;53.022;12.968;2023-09-30T15:10:34;18.17;;;3.23;;
15383;SDS011;7790;53.022;12.968;2023-09-30T15:14:38;11.63;;;2.63;;
15383;SDS011;7790;53.022;12.968;2023-09-30T15:18:39;15.87;;;3.20;;
15383;SDS011;7790;53.022;12.968;2023-09-30T15:22:40;12.40;;;3.03;;
15383;SDS011;7790;53.022;12.968;2023-09-30T15:26:41;13.47;;;2.90;;
15383;SDS011;7790;53.022;12.968;2023-09-30T15:30:41;13.00;;;3.50;;
15383;SDS011;7790;53.022;12.968;2023-09-30T15:34:42;15.90;;;2.90;;
15383;SDS011;7790;53.022;12.968;2023-09-30T15:38:44;9.20;;;3.03;;
15383;SDS011;7790;53.022;12.968;2023-09-30T15:42:46;15.20;;;2.73;;
15383;SDS011;7790;53.022;12.968;2023-09-30T15:46:47;9.80;;;2.47;;
15383;SDS011;7790;53.022;12.968;2023-09-30T15:50:48;6.00;;;2.47;;
15383;SDS011;7790;53.022;12.968;2023-09-30T15:54:50;11.90;;;2.30;;
15383;SDS011;7790;53.022;12.968;2023-09-30T15:58:51;6.97;;;2.47;;
15383;SDS011;7790;53.022;12.968;2023-09-30T16:02:52;8.00;;;2.47;;
15383;SDS011;7790;53.022;12.968;2023-09-30T16:06:53;8.53;;;2.17;;
15383;SDS011;7790;53.022;12.968;2023-09-30T16:10:54;9.90;;;2.43;;
15383;SDS011;7790;53.022;12.968;2023-09-30T16:14:55;12.73;;;2.87;;
15383;SDS011;7790;53.022;12.968;2023-09-30T16:18:56;14.60;;;2.73;;
15383;SDS011;7790;53.022;12.968;2023-09-30T16:22:57;11.63;;;2.90;;
15383;SDS011;7790;53.022;12.968;2023-09-30T16:26:58;12.33;;;3.20;;
15383;SDS011;7790;53.022;12.968;2023-09-30T16:30:59;6.40;;;2.57;;
15383;SDS011;7790;53.022;12.968;2023-09-30T16:35:01;16.23;;;7.50;;
15383;SDS011;7790;53.022;12.968;2023-09-30T16:39:03;18.33;;;11.27;;
15383;SDS011;7790;53.022;12.968;2023-09-30T16:43:04;25.80;;;12.30;;
15383;SDS011;7790;53.022;12.968;2023-09-30T16:47:04;16.47;;;9.27;;
15383;SDS011;7790;53.022;12.968;2023-09-30T16:51:09;17.87;;;10.63;;
15383;SDS011;7790;53.022;12.968;2023-09-30T16:55:11;18.67;;;8.70;;
15383;SDS011;7790;53.022;12.968;2023-09-30T16:59:12;12.93;;;7.40;;
15383;SDS011;7790;53.022;12.968;2023-09-30T17:03:14;8.53;;;6.20;;
15383;SDS011;7790;53.022;12.968;2023-09-30T17:07:14;7.33;;;5.27;;
15383;SDS011;7790;53.022;12.968;2023-09-30T17:11:18;10.53;;;5.07;;
15383;SDS011;7790;53.022;12.968;2023-09-30T17:15:20;10.53;;;5.60;;
15383;SDS011;7790;53.022;12.968;2023-09-30T17:19:21;10.27;;;4.77;;
15383;SDS011;7790;53.022;12.968;2023-09-30T17:23:22;7.63;;;4.33;;
15383;SDS011;7790;53.022;12.968;2023-09-30T17:27:23;10.33;;;4.37;;
15383;SDS011;7790;53.022;12.968;2023-09-30T17:31:24;9.10;;;4.10;;
15383;SDS011;7790;53.022;12.968;2023-09-30T17:35:25;7.83;;;4.30;;
15383;SDS011;7790;53.022;12.968;2023-09-30T17:39:26;5.17;;;3.43;;
15383;SDS011;7790;53.022;12.968;2023-09-30T17:43:27;5.67;;;3.50;;
15383;SDS011;7790;53.022;12.968;2023-09-30T17:47:28;4.77;;;3.17;;
15383;SDS011;7790;53.022;12.968;2023-09-30T17:51:29;7.53;;;3.63;;
15383;SDS011;7790;53.022;12.968;2023-09-30T17:55:35;3.60;;;3.00;;
15383;SDS011;7790;53.022;12.968;2023-09-30T17:59:37;5.30;;;3.10;;
15383;SDS011;7790;53.022;12.968;2023-09-30T18:03:38;5.80;;;3.37;;
15383;SDS011;7790;53.022;12.968;2023-09-30T18:07:39;5.23;;;3.23;;
15383;SDS011;7790;53.022;12.968;2023-09-30T18:11:40;6.93;;;3.73;;
15383;SDS011;7790;53.022;12.968;2023-09-30T18:15:40;5.30;;;3.60;;
15383;SDS011;7790;53.022;12.968;2023-09-30T18:19:41;5.73;;;3.10;;
15383;SDS011;7790;53.022;12.968;2023-09-30T18:23:42;4.07;;;3.00;;
15383;SDS011;7790;53.022;12.968;2023-09-30T18:27:43;3.87;;;2.57;;
15383;SDS011;7790;53.022;12.968;2023-09-30T18:31:44;2.83;;;2.47;;
15383;SDS011;7790;53.022;12.968;2023-09-30T18:35:45;3.83;;;2.40;;
15383;SDS011;7790;53.022;12.968;2023-09-30T18:39:46;2.67;;;1.87;;
15383;SDS011;7790;53.022;12.968;2023-09-30T18:43:47;3.73;;;2.60;;
15383;SDS011;7790;53.022;12.968;2023-09-30T18:47:48;2.67;;;2.13;;
15383;SDS011;7790;53.022;12.968;2023-09-30T18:51:50;3.40;;;2.27;;
15383;SDS011;7790;53.022;12.968;2023-09-30T18:55:51;5.47;;;2.60;;
15383;SDS011;7790;53.022;12.968;2023-09-30T18:59:52;3.77;;;2.50;;
15383;SDS011;7790;53.022;12.968;2023-09-30T19:03:54;3.83;;;2.50;;
15383;SDS011;7790;53.022;12.968;2023-09-30T19:07:56;5.27;;;2.20;;
15383;SDS011;7790;53.022;12.968;2023-09-30T19:11:56;3.07;;;2.20;;
15383;SDS011;7790;53.022;12.968;2023-09-30T19:15:58;4.50;;;2.27;;
15383;SDS011;7790;53.022;12.968;2023-09-30T19:19:59;3.27;;;1.70;;
15383;SDS011;7790;53.022;12.968;2023-09-30T19:24:00;2.67;;;2.10;;
15383;SDS011;7790;53.022;12.968;2023-09-30T19:28:01;4.97;;;2.23;;
15383;SDS011;7790;53.022;12.968;2023-09-30T19:32:02;4.40;;;2.10;;
15383;SDS011;7790;53.022;12.968;2023-09-30T19:36:07;3.60;;;1.90;;
15383;SDS011;7790;53.022;12.968;2023-09-30T19:40:11;3.83;;;2.00;;
15383;SDS011;7790;53.022;12.968;2023-09-30T19:44:12;3.67;;;2.10;;
15383;SDS011;7790;53.022;12.968;2023-09-30T19:48:13;6.77;;;2.10;;
15383;SDS011;7790;53.022;12.968;2023-09-30T19:52:14;7.60;;;2.60;;
15383;SDS011;7790;53.022;12.968;2023-09-30T19:56:15;6.10;;;2.30;;
15383;SDS011;7790;53.022;12.968;2023-09-30T20:00:16;8.23;;;2.33;;
15383;SDS011;7790;53.022;12.968;2023-09-30T20:04:18;7.53;;;2.63;;
15383;SDS011;7790;53.022;12.968;2023-09-30T20:08:20;7.97;;;2.03;;
15383;SDS011;7790;53.022;12.968;2023-09-30T20:12:21;6.63;;;2.27;;
15383;SDS011;7790;53.022;12.968;2023-09-30T20:16:22;9.40;;;2.50;;
15383;SDS011;7790;53.022;12.968;2023-09-30T20:20:23;6.90;;;2.30;;
15383;SDS011;7790;53.022;12.968;2023-09-30T20:24:25;5.87;;;2.20;;
15383;SDS011;7790;53.022;12.968;2023-09-30T20:28:25;7.63;;;2.53;;
15383;SDS011;7790;53.022;12.968;2023-09-30T20:32:29;7.17;;;2.73;;
15383;SDS011;7790;53.022;12.968;2023-09-30T20:36:30;6.33;;;2.40;;
15383;SDS011;7790;53.022;12.968;2023-09-30T20:40:31;10.63;;;2.17;;
15383;SDS011;7790;53.022;12.968;2023-09-30T20:44:32;11.70;;;2.10;;
15383;SDS011;7790;53.022;12.968;2023-09-30T20:48:34;4.73;;;1.67;;
15383;SDS011;7790;53.022;12.968;2023-09-30T20:52:36;8.73;;;1.63;;
15383;SDS011;7790;53.022;12.968;2023-09-30T20:56:37;7.73;;;2.23;;
15383;SDS011;7790;53.022;12.968;2023-09-30T21:00:38;6.53;;;1.87;;
15383;SDS011;7790;53.022;12.968;2023-09-30T21:04:39;3.43;;;1.63;;
15383;SDS011;7790;53.022;12.968;2023-09-30T21:08:40;4.20;;;1.67;;
15383;SDS011;7790;53.022;12.968;2023-09-30T21:12:41;6.93;;;2.00;;
15383;SDS011;7790;53.022;12.968;2023-09-30T21:16:42;4.10;;;1.20;;
15383;SDS011;7790;53.022;12.968;2023-09-30T21:20:42;4.23;;;1.50;;
15383;SDS011;7790;53.022;12.968;2023-09-30T21:24:43;3.33;;;1.70;;
15383;SDS011;7790;53.022;12.968;2023-09-30T21:28:44;3.57;;;1.77;;
15383;SDS011;7790;53.022;12.968;2023-09-30T21:32:46;2.07;;;1.70;;
15383;SDS011;7790;53.022;12.968;2023-09-30T21:36:47;3.57;;;1.60;;
15383;SDS011;7790;53.022;12.968;2023-09-30T21:40:48;4.87;;;1.87;;
15383;SDS011;7790;53.022;12.968;2023-09-30T21:44:49;2.00;;;1.40;;
15383;SDS011;7790;53.022;12.968;2023-09-30T21:48:51;3.70;;;1.80;;
15383;SDS011;7790;53.022;12.968;2023-09-30T21:52:54;2.97;;;1.60;;
15383;SDS011;7790;53.022;12.968;2023-09-30T21:56:55;2.40;;;1.40;;
15383;SDS011;7790;53.022;12.968;2023-09-30T22:00:56;2.47;;;1.60;;
15383;SDS011;7790;53.022;12.968;2023-09-30T22:04:57;2.60;;;1.30;;
15383;SDS011;7790;53.022;12.968;2023-09-30T22:08:58;2.03;;;1.60;;
15383;SDS011;7790;53.022;12.968;2023-09-30T22:12:59;2.03;;;1.37;;
15383;SDS011;7790;53.022;12.968;2023-09-30T22:17:01;3.43;;;1.50;;
15383;SDS011;7790;53.022;12.968;2023-09-30T22:21:02;2.03;;;1.30;;
15383;SDS011;7790;53.022;12.968;2023-09-30T22:25:03;3.50;;;1.50;;
15383;SDS011;7790;53.022;12.968;2023-09-30T22:29:05;1.70;;;1.60;;
15383;SDS011;7790;53.022;12.968;2023-09-30T22:33:06;5.50;;;1.37;;
15383;SDS011;7790;53.022;12.968;2023-09-30T22:37:07;3.20;;;1.50;;
15383;SDS011;7790;53.022;12.968;2023-09-30T22:41:09;1.30;;;1.00;;
15383;SDS011;7790;53.022;12.968;2023-09-30T22:45:11;2.77;;;1.40;;
15383;SDS011;7790;53.022;12.968;2023-09-30T22:49:12;2.90;;;1.33;;
15383;SDS011;7790;53.022;12.968;2023-09-30T22:53:12;4.73;;;1.57;;
15383;SDS011;7790;53.022;12.968;2023-09-30T22:57:13;4.83;;;1.60;;
15383;SDS011;7790;53.022;12.968;2023-09-30T23:01:32;2.43;;;1.50;;
15383;SDS011;7790;53.022;12.968;2023-09-30T23:05:34;4.83;;;1.83;;
15383;SDS011;7790;53.022;12.968;2023-09-30T23:09:35;6.57;;;1.10;;
15383;SDS011;7790;53.022;12.968;2023-09-30T23:13:37;3.03;;;1.40;;
15383;SDS011;7790;53.022;12.968;2023-09-30T23:17:39;3.70;;;1.40;;
15383;SDS011;7790;53.022;12.968;2023-09-30T23:21:41;1.60;;;1.27;;
15383;SDS011;7790;53.022;12.968;2023-09-30T23:25:42;2.47;;;1.20;;
15383;SDS011;7790;53.022;12.968;2023-09-30T23:29:44;5.87;;;1.73;;
15383;SDS011;7790;53.022;12.968;2023-09-30T23:33:45;2.03;;;1.23;;
15383;SDS011;7790;53.022;12.968;2023-09-30T23:37:49;2.07;;;1.43;;
15383;SDS011;7790;53.022;12.968;2023-09-30T23:41:53;3.60;;;1.27;;
15383;SDS011;7790;53.022;12.968;2023-09-30T23:45:54;2.37;;;1.57;;
15383;SDS011;7790;53.022;12.968;2023-09-30T23:49:56;2.23;;;1.47;;
15383;SDS011;7790;53.022;12.968;2023-09-30T23:53:57;3.50;;;1.40;;
15383;SDS011;7790;53.022;12.968;2023-09-30T23:58:00;4.23;;;1.40;;
